Aeroporto :
LOGIN :

Iscrizione | Disclaimer

   EN    FR    IT 

 










Sommario :    VFR   VFR Marginale   IFR   IFR Intensivo   IFR Molto Intensivo
Visibilità : 
Base nubi : 
>= 8 km
>= 3000ft
5 / 8 km
1000 / 3000 ft
1500m / 5 km
500 / 1000 ft
800 / 1500m
200 / 500 ft
< 800m
< 200 ft
Simboli :   Temporali  Nebbia  Neve Forte  Precipitazioni Forti  Vento > 20 kt
SIGMETs :   Varie  Temporali  Ghiacco  Turbolenza  Onda orograficha  Ceneri Vulcaniche






- Altitudine del aeroporto : 1197 ft
- Codice IATA : SPM


ETAD - Spangdahlem Ab

ULTIMO METAR :
  • 080755Z 08009KT 9999 CLR M01/M12 A3057 RMK AO2A SLP358 T10141124 $

METARs OBSOLETI :
  • 080655Z 07009KT 9999 CLR M02/M12 A3057 RMK AO2A SLP358 T10251120 $
  • 080555Z 07007KT 9999 CLR M03/M12 A3057 RMK AO2A SLP359 T10291116 11020 21032 58003 $
  • 080455Z 06006KT 9999 CLR M03/M11 A3057 RMK AO2A SLPNO T10301108 $

TAF TAF ETAD
Valido dal 08 a 05 ore il 09 a 11 ore UTC


080500Z 0805/0911 06008KT 9999 SKC QNH3057INS
BECMG 0809/0810 09010G15KT 9999 SKC QNH3046INS
BECMG 0822/0823 VRB05KT 9999 SKC QNH3041INS TX03/0812Z TNM05/0904Z



MetMap, La meteo Aeronautica in un colpo d'occhio ! - Copyright ORBIFLY Dicembre 2007 - Disclaimer

ORBIFLY MET'MAP TEAM :

Programmazione e sviluppo : Alexandra Zaïnal
Concezione : Baudouin d'Aumeries
Supporto tecnico e logistico : Manuel Goepfert
Aiuto : Marc-Olivier Méhu
Aiuto per la traduzione : Arnaldo La Scala




FONTI E CREDITI :

   NOAA